Time;durP1;ratioP1;P1;durP2;ratioP2;P2;SDS_P1;SDS_P2;PMS_P1;PMS_P2;Temp;Humidity;BMP_temperature;BMP_pressure;BME280_temperature;BME280_humidity;BME280_pressure;Samples;Min_cycle;Max_cycle;Signal;HPM_P1;HPM_P2
2023/05/20 00:00:51;;;;;;;15.40;6.57;;;14.10;99.90;;;;;;5073375;28;20025;-67
2023/05/20 00:03:21;;;;;;;20.27;7.03;;;14.00;99.90;;;;;;5072910;28;20047;-67
2023/05/20 00:05:47;;;;;;;13.35;6.68;;;14.00;99.90;;;;;;5072789;28;20021;-67
2023/05/20 00:08:13;;;;;;;14.88;6.03;;;14.10;99.90;;;;;;5072549;28;20044;-67
2023/05/20 00:10:40;;;;;;;12.50;6.53;;;14.10;99.90;;;;;;5071104;28;20028;-66
2023/05/20 00:13:06;;;;;;;11.85;6.13;;;14.00;99.90;;;;;;5072228;28;20159;-67
2023/05/20 00:15:32;;;;;;;12.93;6.00;;;14.10;99.90;;;;;;5073075;28;20103;-67
2023/05/20 00:18:00;;;;;;;11.43;5.82;;;14.10;99.90;;;;;;5072613;28;20050;-67
2023/05/20 00:20:26;;;;;;;9.57;5.57;;;14.10;99.90;;;;;;5072573;28;20039;-67
2023/05/20 00:22:51;;;;;;;12.77;5.68;;;14.00;99.90;;;;;;5072187;28;20024;-67
2023/05/20 00:25:17;;;;;;;10.88;5.65;;;13.90;99.90;;;;;;5072135;28;20483;-67
2023/05/20 00:27:43;;;;;;;13.35;6.20;;;14.00;99.90;;;;;;5072545;28;20586;-67
2023/05/20 00:30:09;;;;;;;12.60;5.50;;;14.00;99.90;;;;;;5072333;28;20086;-67
2023/05/20 00:32:35;;;;;;;13.82;6.00;;;14.00;99.90;;;;;;5072321;28;20441;-67
2023/05/20 00:35:01;;;;;;;11.68;5.50;;;14.00;99.90;;;;;;5071920;28;20048;-66
2023/05/20 00:37:27;;;;;;;10.77;6.03;;;13.90;99.90;;;;;;5072000;28;20035;-67
2023/05/20 00:39:52;;;;;;;11.52;5.45;;;14.00;99.90;;;;;;5072195;28;20032;-67
2023/05/20 00:42:28;;;;;;;10.32;5.35;;;14.00;99.90;;;;;;5072044;28;20031;-66
2023/05/20 00:44:54;;;;;;;7.93;5.13;;;13.90;99.90;;;;;;5072004;28;20067;-67
2023/05/20 00:47:25;;;;;;;8.95;5.40;;;13.90;99.90;;;;;;5071906;28;20048;-67
2023/05/20 00:49:51;;;;;;;9.68;5.25;;;13.90;99.90;;;;;;5071943;28;20086;-67
2023/05/20 00:52:18;;;;;;;11.40;5.65;;;13.90;99.90;;;;;;5072153;28;20037;-67
2023/05/20 00:54:44;;;;;;;9.38;5.00;;;14.00;99.90;;;;;;5071468;28;20023;-67
2023/05/20 00:57:11;;;;;;;12.60;6.35;;;13.90;99.90;;;;;;5071677;28;20043;-67
2023/05/20 00:59:38;;;;;;;8.05;5.13;;;13.90;99.90;;;;;;5071659;28;20466;-67
2023/05/20 01:02:04;;;;;;;10.45;5.50;;;13.80;99.90;;;;;;5072205;28;20052;-66
2023/05/20 01:04:31;;;;;;;9.27;5.38;;;13.80;99.90;;;;;;5071689;28;20053;-67
2023/05/20 01:07:01;;;;;;;11.77;5.38;;;13.70;99.90;;;;;;5071311;28;20036;-67
2023/05/20 01:09:30;;;;;;;13.27;5.70;;;13.70;99.90;;;;;;5071510;28;20024;-66
2023/05/20 01:12:04;;;;;;;14.43;5.40;;;13.70;99.90;;;;;;5071870;28;20032;-67
2023/05/20 01:14:35;;;;;;;9.10;5.32;;;13.70;99.90;;;;;;5071425;28;20449;-67
2023/05/20 01:17:09;;;;;;;10.18;5.20;;;13.70;99.90;;;;;;5071460;28;20406;-67
2023/05/20 01:19:42;;;;;;;12.70;5.50;;;13.70;99.90;;;;;;5071402;28;20063;-67
2023/05/20 01:22:11;;;;;;;9.63;5.30;;;13.60;99.90;;;;;;5071257;28;20056;-67
2023/05/20 01:24:47;;;;;;;10.35;5.40;;;13.60;99.90;;;;;;5070653;28;20044;-66
2023/05/20 01:27:13;;;;;;;8.48;4.93;;;13.60;99.90;;;;;;5071200;28;20037;-67
2023/05/20 01:29:40;;;;;;;9.48;5.45;;;13.50;99.90;;;;;;5072565;28;20016;-67
2023/05/20 01:32:25;;;;;;;11.02;5.25;;;13.40;99.90;;;;;;5091308;28;20501;-67
2023/05/20 01:34:52;;;;;;;11.75;5.20;;;13.40;99.90;;;;;;5091269;28;20506;-67
2023/05/20 01:37:19;;;;;;;7.68;5.28;;;13.50;99.90;;;;;;5091449;28;20393;-67
2023/05/20 01:39:48;;;;;;;8.70;5.22;;;13.40;99.90;;;;;;5090967;28;20020;-67
2023/05/20 01:42:15;;;;;;;9.48;5.22;;;13.40;99.90;;;;;;5090066;28;20539;-67
2023/05/20 01:44:41;;;;;;;8.85;5.10;;;13.50;99.90;;;;;;5091657;28;20038;-67
2023/05/20 01:47:06;;;;;;;10.88;5.40;;;13.40;99.90;;;;;;5091201;28;20039;-67
2023/05/20 01:49:32;;;;;;;9.07;4.80;;;13.30;99.90;;;;;;5091135;28;20035;-67
2023/05/20 01:51:58;;;;;;;8.73;4.90;;;13.40;99.90;;;;;;5091767;28;20368;-67
2023/05/20 01:54:23;;;;;;;8.60;5.15;;;13.40;99.90;;;;;;5090845;28;20034;-67
2023/05/20 01:56:49;;;;;;;11.57;5.32;;;13.40;99.90;;;;;;5091108;28;20069;-67
2023/05/20 01:59:15;;;;;;;10.05;4.63;;;13.40;99.90;;;;;;5091192;28;20036;-66
2023/05/20 02:01:41;;;;;;;11.20;5.30;;;13.40;99.90;;;;;;5091494;28;20028;-67
2023/05/20 02:04:06;;;;;;;11.38;5.45;;;13.40;99.90;;;;;;5091278;28;20474;-67
2023/05/20 02:06:33;;;;;;;10.63;5.20;;;13.30;99.90;;;;;;5091129;28;20025;-67
2023/05/20 02:08:58;;;;;;;9.50;5.07;;;13.30;99.90;;;;;;5090662;28;20040;-67
2023/05/20 02:11:25;;;;;;;10.63;5.10;;;13.40;99.90;;;;;;5091166;28;20038;-67
2023/05/20 02:13:50;;;;;;;9.38;4.78;;;13.30;99.90;;;;;;5091405;28;20036;-67
2023/05/20 02:16:16;;;;;;;6.90;4.47;;;13.30;99.90;;;;;;5091160;28;20016;-67
2023/05/20 02:18:42;;;;;;;8.63;4.90;;;13.30;99.90;;;;;;5090643;28;20028;-67
2023/05/20 02:21:08;;;;;;;10.73;5.05;;;13.40;99.90;;;;;;5090773;28;20436;-67
2023/05/20 02:23:34;;;;;;;8.60;4.95;;;13.30;99.90;;;;;;5090824;28;20028;-66
2023/05/20 02:26:01;;;;;;;10.65;5.10;;;13.30;99.90;;;;;;5089652;28;20027;-67
2023/05/20 02:28:26;;;;;;;8.82;5.10;;;13.30;99.90;;;;;;5090675;28;20036;-66
2023/05/20 02:30:52;;;;;;;7.30;4.72;;;13.30;99.90;;;;;;5090743;28;20034;-67
2023/05/20 02:33:20;;;;;;;11.18;5.45;;;13.30;99.90;;;;;;5091222;28;20036;-66
2023/05/20 02:35:46;;;;;;;6.45;4.75;;;13.20;99.90;;;;;;5091347;28;20514;-67
2023/05/20 02:38:12;;;;;;;7.68;4.70;;;13.20;99.90;;;;;;5094775;28;20107;-67
2023/05/20 02:40:38;;;;;;;7.95;4.93;;;13.20;99.90;;;;;;5094882;28;20111;-67
2023/05/20 02:43:04;;;;;;;7.85;4.50;;;13.20;99.90;;;;;;5094458;28;20484;-66
2023/05/20 02:45:30;;;;;;;10.68;4.85;;;13.20;99.90;;;;;;5094977;28;20024;-67
2023/05/20 02:47:55;;;;;;;9.05;4.90;;;13.20;99.90;;;;;;5094459;28;20036;-67
2023/05/20 02:50:21;;;;;;;11.85;5.20;;;13.20;99.90;;;;;;5094319;28;20020;-66
2023/05/20 02:52:47;;;;;;;6.70;4.65;;;13.10;99.90;;;;;;5094421;28;20036;-67
2023/05/20 02:55:13;;;;;;;10.30;5.40;;;13.10;99.90;;;;;;5094666;28;20082;-67
2023/05/20 02:57:39;;;;;;;7.68;4.50;;;13.10;99.90;;;;;;5094479;28;20036;-67
2023/05/20 03:00:07;;;;;;;12.93;5.32;;;13.10;99.90;;;;;;5094487;28;20078;-66
2023/05/20 03:02:33;;;;;;;9.95;4.97;;;13.10;99.90;;;;;;5094187;28;20021;-66
2023/05/20 03:04:59;;;;;;;9.00;4.63;;;13.10;99.90;;;;;;5093976;28;20099;-67
2023/05/20 03:07:24;;;;;;;8.75;5.00;;;13.10;99.90;;;;;;5094271;28;20115;-67
2023/05/20 03:09:51;;;;;;;7.97;4.70;;;13.10;99.90;;;;;;5094109;28;20020;-66
2023/05/20 03:12:16;;;;;;;8.43;4.60;;;13.00;99.90;;;;;;5093948;28;20028;-66
2023/05/20 03:14:42;;;;;;;8.55;4.97;;;13.00;99.90;;;;;;5094588;28;20511;-67
2023/05/20 03:17:08;;;;;;;10.10;5.45;;;13.00;99.90;;;;;;5093997;28;20452;-67
2023/05/20 03:19:34;;;;;;;9.90;5.15;;;13.00;99.90;;;;;;5092875;28;20546;-66
2023/05/20 03:22:00;;;;;;;10.80;4.65;;;13.00;99.90;;;;;;5093917;28;20102;-67
2023/05/20 03:24:27;;;;;;;10.60;5.10;;;13.00;99.90;;;;;;5093668;28;20057;-66
2023/05/20 03:26:54;;;;;;;9.82;4.85;;;12.90;99.90;;;;;;5093558;28;20062;-67
2023/05/20 03:29:22;;;;;;;9.05;5.30;;;12.90;99.90;;;;;;5094315;28;20028;-67
2023/05/20 03:31:48;;;;;;;7.93;4.60;;;12.90;99.90;;;;;;5092225;28;20395;-67
2023/05/20 03:34:13;;;;;;;10.63;5.10;;;12.90;99.90;;;;;;5093187;28;20036;-66
2023/05/20 03:36:39;;;;;;;6.85;4.90;;;13.00;99.90;;;;;;5093718;28;20031;-66
2023/05/20 03:39:05;;;;;;;8.90;4.90;;;13.00;99.90;;;;;;5093685;28;20087;-67
2023/05/20 03:41:31;;;;;;;10.38;5.00;;;13.00;99.90;;;;;;5093388;28;20432;-66
2023/05/20 03:43:57;;;;;;;8.13;4.97;;;13.00;99.90;;;;;;5093555;28;20099;-66
2023/05/20 03:46:22;;;;;;;9.70;4.60;;;12.90;99.90;;;;;;5093781;28;20120;-66
2023/05/20 03:48:48;;;;;;;7.95;4.80;;;12.90;99.90;;;;;;5092210;28;20032;-67
2023/05/20 03:51:14;;;;;;;7.47;4.88;;;12.80;99.90;;;;;;5093208;28;20028;-66
2023/05/20 03:53:39;;;;;;;9.75;4.80;;;12.80;99.90;;;;;;5093385;28;20470;-66
2023/05/20 03:56:05;;;;;;;10.23;5.00;;;12.80;99.90;;;;;;5093698;28;20474;-66
2023/05/20 03:58:31;;;;;;;10.20;5.05;;;12.80;99.90;;;;;;5093327;28;20032;-67
2023/05/20 04:00:57;;;;;;;8.75;5.07;;;12.80;99.90;;;;;;5093085;28;20024;-67
2023/05/20 04:03:23;;;;;;;9.00;5.13;;;12.80;99.90;;;;;;5093393;28;20122;-67
2023/05/20 04:05:49;;;;;;;8.13;5.00;;;12.80;99.90;;;;;;5093014;28;20116;-67
2023/05/20 04:08:14;;;;;;;7.95;5.13;;;12.80;99.90;;;;;;5092857;28;20123;-67
2023/05/20 04:10:44;;;;;;;8.93;4.90;;;12.80;99.90;;;;;;5093096;28;20386;-67
2023/05/20 04:13:10;;;;;;;7.30;4.68;;;12.80;99.90;;;;;;5093246;28;20040;-66
2023/05/20 04:15:37;;;;;;;7.47;4.80;;;12.90;99.90;;;;;;5091807;28;20024;-66
2023/05/20 04:18:04;;;;;;;8.02;4.90;;;12.80;99.90;;;;;;5092611;28;20260;-66
2023/05/20 04:20:30;;;;;;;7.35;4.80;;;12.80;99.90;;;;;;5092716;28;20106;-67
2023/05/20 04:22:56;;;;;;;10.18;5.25;;;12.80;99.90;;;;;;5092781;28;20024;-66
2023/05/20 04:25:22;;;;;;;7.45;4.88;;;12.80;99.90;;;;;;5092687;28;20031;-67
2023/05/20 04:27:49;;;;;;;7.60;4.93;;;12.80;99.90;;;;;;5092489;28;20036;-67
2023/05/20 04:30:17;;;;;;;9.18;4.95;;;12.80;99.90;;;;;;5092196;28;20390;-67
2023/05/20 04:32:43;;;;;;;10.32;5.20;;;12.80;99.90;;;;;;5092124;28;20506;-67
2023/05/20 04:35:10;;;;;;;9.38;4.97;;;12.70;99.90;;;;;;5092488;28;20067;-66
2023/05/20 04:37:37;;;;;;;9.43;5.45;;;12.70;99.90;;;;;;5092580;28;20032;-67
2023/05/20 04:40:03;;;;;;;9.52;4.90;;;12.60;99.90;;;;;;5092705;28;20095;-66
2023/05/20 04:42:29;;;;;;;7.60;4.80;;;12.60;99.90;;;;;;5092446;28;20032;-67
2023/05/20 04:44:54;;;;;;;7.45;4.95;;;12.60;99.90;;;;;;5092052;28;20406;-66
2023/05/20 04:47:20;;;;;;;9.45;5.05;;;12.60;99.90;;;;;;5092219;28;20059;-66
2023/05/20 04:49:46;;;;;;;9.07;5.15;;;12.60;99.90;;;;;;5092217;28;20068;-66
2023/05/20 04:52:12;;;;;;;7.30;5.03;;;12.60;99.90;;;;;;5092220;28;20055;-67
2023/05/20 04:54:39;;;;;;;11.52;5.57;;;12.50;99.90;;;;;;5092330;28;20058;-67
2023/05/20 04:57:05;;;;;;;9.05;5.25;;;12.50;99.90;;;;;;5092099;28;20089;-66
2023/05/20 04:59:30;;;;;;;9.70;5.63;;;12.60;99.90;;;;;;5091751;28;20035;-66
2023/05/20 05:01:56;;;;;;;7.68;5.18;;;12.60;99.90;;;;;;5091783;28;20024;-67
2023/05/20 05:04:22;;;;;;;8.23;5.32;;;12.50;99.90;;;;;;5090949;28;20494;-67
2023/05/20 05:06:48;;;;;;;7.60;5.10;;;12.50;99.90;;;;;;5091705;28;20040;-67
2023/05/20 05:09:14;;;;;;;7.68;4.93;;;12.50;99.90;;;;;;5091921;28;20028;-66
2023/05/20 05:11:40;;;;;;;9.82;5.03;;;12.50;99.90;;;;;;5091849;28;20020;-67
2023/05/20 05:14:05;;;;;;;8.77;5.40;;;12.50;99.90;;;;;;5092100;28;20444;-67
2023/05/20 05:16:31;;;;;;;9.23;5.07;;;12.50;99.90;;;;;;5091635;28;20024;-67
2023/05/20 05:18:57;;;;;;;12.73;5.05;;;12.50;99.90;;;;;;5091722;28;20024;-67
2023/05/20 05:21:22;;;;;;;8.40;5.10;;;12.50;99.90;;;;;;5091708;28;20032;-67
2023/05/20 05:23:48;;;;;;;7.82;4.88;;;12.50;99.90;;;;;;5091598;28;20111;-66
2023/05/20 05:26:14;;;;;;;10.63;5.60;;;12.50;99.90;;;;;;5091889;28;20422;-66
2023/05/20 05:28:42;;;;;;;7.53;4.82;;;12.50;99.90;;;;;;5091417;28;20107;-66
2023/05/20 05:31:08;;;;;;;10.30;5.35;;;12.50;99.90;;;;;;5091509;28;20592;-67
2023/05/20 05:33:33;;;;;;;9.98;5.30;;;12.60;99.90;;;;;;5091392;28;20521;-66
2023/05/20 05:36:00;;;;;;;10.27;5.38;;;12.60;99.90;;;;;;5091499;28;20040;-67
2023/05/20 05:38:27;;;;;;;10.20;5.10;;;12.60;99.90;;;;;;5091275;28;20040;-66
2023/05/20 05:40:53;;;;;;;12.85;5.97;;;12.60;99.90;;;;;;5091365;28;20038;-67
2023/05/20 05:43:18;;;;;;;7.82;4.95;;;12.60;99.90;;;;;;5091315;28;20024;-67
2023/05/20 05:45:44;;;;;;;8.73;5.38;;;12.70;99.90;;;;;;5091526;28;20031;-66
2023/05/20 05:48:10;;;;;;;11.57;5.57;;;12.70;99.90;;;;;;5091373;28;20118;-66
2023/05/20 05:50:35;;;;;;;9.50;5.13;;;12.70;99.90;;;;;;5089979;28;20024;-66
2023/05/20 05:53:01;;;;;;;9.88;5.30;;;12.80;99.90;;;;;;5091606;28;20024;-67
2023/05/20 05:55:27;;;;;;;7.55;4.65;;;12.80;99.90;;;;;;5091091;28;20024;-67
2023/05/20 05:57:53;;;;;;;8.98;4.93;;;12.80;99.90;;;;;;5091044;28;20024;-67
2023/05/20 06:00:19;;;;;;;7.60;4.38;;;12.80;99.90;;;;;;5091018;28;20027;-67
2023/05/20 06:02:46;;;;;;;7.50;4.80;;;12.90;99.90;;;;;;5090425;28;20031;-67
2023/05/20 06:05:12;;;;;;;9.73;5.07;;;12.90;99.90;;;;;;5091183;28;20032;-67
2023/05/20 06:07:37;;;;;;;9.43;5.10;;;13.00;99.90;;;;;;5091026;28;20426;-68
2023/05/20 06:10:03;;;;;;;8.00;4.93;;;13.00;99.90;;;;;;5091286;28;20463;-68
2023/05/20 06:12:29;;;;;;;9.25;4.90;;;13.10;99.90;;;;;;5095039;28;20074;-67
2023/05/20 06:14:55;;;;;;;7.68;4.88;;;13.00;99.90;;;;;;5095127;28;20481;-67
2023/05/20 06:17:20;;;;;;;7.90;4.65;;;13.10;99.90;;;;;;5095020;28;20028;-67
2023/05/20 06:19:46;;;;;;;9.63;4.97;;;13.10;99.90;;;;;;5094943;28;20031;-67
2023/05/20 06:22:12;;;;;;;10.00;5.50;;;13.20;99.90;;;;;;5095000;28;20024;-67
2023/05/20 06:24:37;;;;;;;8.45;4.75;;;13.10;99.90;;;;;;5095058;28;20085;-67
2023/05/20 06:27:03;;;;;;;7.65;4.93;;;13.20;99.90;;;;;;5094606;28;20036;-67
2023/05/20 06:29:29;;;;;;;8.95;4.82;;;13.30;99.90;;;;;;5095706;28;20567;-67
2023/05/20 06:31:55;;;;;;;9.20;5.07;;;13.30;99.90;;;;;;5094906;28;20028;-67
2023/05/20 06:34:20;;;;;;;8.55;4.95;;;13.40;99.90;;;;;;5094396;28;20039;-68
2023/05/20 06:36:46;;;;;;;7.80;5.00;;;13.40;99.90;;;;;;5094553;28;20031;-68
2023/05/20 06:39:12;;;;;;;7.80;5.13;;;13.50;99.90;;;;;;5095097;28;20067;-68
2023/05/20 06:41:38;;;;;;;6.10;4.75;;;13.60;99.90;;;;;;5094542;28;20028;-67
2023/05/20 06:44:05;;;;;;;9.45;5.03;;;13.60;99.90;;;;;;5094296;28;20485;-67
2023/05/20 06:46:31;;;;;;;8.90;5.00;;;13.60;99.90;;;;;;5094393;28;20513;-67
2023/05/20 06:48:57;;;;;;;8.27;5.07;;;13.70;99.90;;;;;;5094436;28;20213;-68
2023/05/20 06:51:22;;;;;;;8.50;4.45;;;13.80;99.90;;;;;;5093298;28;20032;-67
2023/05/20 06:53:48;;;;;;;7.15;5.00;;;13.90;99.90;;;;;;5094374;28;20032;-67
2023/05/20 06:56:14;;;;;;;8.23;4.95;;;14.00;99.90;;;;;;5094660;28;20061;-67
2023/05/20 06:58:40;;;;;;;8.80;5.00;;;14.00;99.90;;;;;;5093795;28;20051;-67
2023/05/20 07:01:05;;;;;;;10.88;4.70;;;14.00;99.90;;;;;;5094238;28;20069;-68
2023/05/20 07:03:31;;;;;;;10.40;5.00;;;14.10;99.90;;;;;;5093985;28;20027;-68
2023/05/20 07:05:57;;;;;;;10.70;4.97;;;14.20;99.90;;;;;;5094141;28;20219;-67
2023/05/20 07:08:23;;;;;;;8.13;4.65;;;14.30;99.90;;;;;;5093823;28;20047;-68
2023/05/20 07:10:48;;;;;;;8.20;4.70;;;14.30;99.90;;;;;;5093759;28;20142;-67
2023/05/20 07:13:17;;;;;;;6.97;4.75;;;14.30;99.90;;;;;;5093911;28;20052;-67
2023/05/20 07:15:46;;;;;;;8.27;4.35;;;14.40;99.90;;;;;;5094108;28;20482;-67
2023/05/20 07:18:12;;;;;;;9.18;4.55;;;14.50;99.90;;;;;;5094100;28;20409;-67
2023/05/20 07:20:37;;;;;;;10.00;4.80;;;14.50;99.90;;;;;;5094384;28;20024;-67
2023/05/20 07:23:03;;;;;;;10.50;4.50;;;14.50;99.90;;;;;;5092640;28;20024;-67
2023/05/20 07:25:29;;;;;;;9.07;4.60;;;14.60;99.90;;;;;;5094211;28;20100;-67
2023/05/20 07:27:54;;;;;;;8.15;4.13;;;14.70;99.90;;;;;;5092314;28;20040;-67
2023/05/20 07:30:20;;;;;;;10.60;4.32;;;14.80;99.90;;;;;;5092249;28;20410;-67
2023/05/20 07:32:46;;;;;;;8.63;4.30;;;14.90;99.90;;;;;;5094184;28;20106;-67
2023/05/20 07:35:11;;;;;;;12.73;3.97;;;14.80;99.90;;;;;;5093671;28;20142;-66
2023/05/20 07:37:37;;;;;;;9.05;4.15;;;14.90;99.90;;;;;;5093647;28;20368;-67
2023/05/20 07:40:04;;;;;;;7.30;4.43;;;15.00;99.90;;;;;;5093627;28;20039;-67
2023/05/20 07:42:30;;;;;;;6.70;3.90;;;15.10;99.90;;;;;;5093574;28;20081;-66
2023/05/20 07:44:55;;;;;;;9.88;4.13;;;15.10;99.90;;;;;;5093463;28;20020;-66
2023/05/20 07:47:21;;;;;;;8.20;4.32;;;15.20;99.90;;;;;;5093963;28;20044;-66
2023/05/20 07:49:47;;;;;;;10.35;4.20;;;15.30;99.90;;;;;;5093363;28;20530;-67
2023/05/20 07:52:12;;;;;;;8.10;4.00;;;15.30;99.90;;;;;;5093312;28;20039;-66
2023/05/20 07:54:38;;;;;;;7.28;3.97;;;15.40;99.90;;;;;;5093118;28;20089;-67
2023/05/20 07:57:04;;;;;;;7.60;4.10;;;15.50;99.90;;;;;;5093247;28;20028;-66
2023/05/20 07:59:30;;;;;;;7.25;4.00;;;15.50;99.90;;;;;;5093280;28;20074;-67
2023/05/20 08:01:56;;;;;;;8.45;3.97;;;15.60;99.90;;;;;;5093616;28;20024;-67
2023/05/20 08:04:22;;;;;;;10.18;3.80;;;15.60;99.90;;;;;;5093217;28;20047;-66
2023/05/20 08:06:48;;;;;;;6.32;3.88;;;15.60;99.90;;;;;;5093018;28;20038;-67
2023/05/20 08:09:14;;;;;;;8.05;3.92;;;15.70;99.90;;;;;;5092691;28;20504;-66
2023/05/20 08:11:39;;;;;;;6.55;4.03;;;15.60;99.90;;;;;;5093163;28;20047;-66
2023/05/20 08:14:05;;;;;;;9.85;4.30;;;15.60;99.90;;;;;;5093178;28;20481;-66
2023/05/20 08:16:31;;;;;;;8.07;3.83;;;15.60;99.90;;;;;;5092923;28;20504;-66
2023/05/20 08:18:56;;;;;;;8.82;4.20;;;15.60;99.90;;;;;;5093291;28;20450;-67
2023/05/20 08:21:22;;;;;;;9.02;4.20;;;15.60;99.90;;;;;;5092747;28;20047;-66
2023/05/20 08:23:48;;;;;;;6.95;4.00;;;15.70;99.90;;;;;;5092509;28;20042;-66
2023/05/20 08:26:14;;;;;;;7.82;4.00;;;15.80;99.90;;;;;;5092663;28;20436;-67
2023/05/20 08:28:40;;;;;;;8.88;4.10;;;15.90;99.90;;;;;;5093201;28;20038;-67
2023/05/20 08:31:05;;;;;;;6.88;3.92;;;16.00;99.90;;;;;;5092121;28;20059;-66
2023/05/20 08:33:31;;;;;;;7.25;3.88;;;16.10;99.90;;;;;;5091515;28;20167;-67
2023/05/20 08:35:57;;;;;;;8.75;4.20;;;16.20;99.90;;;;;;5092436;28;20048;-67
2023/05/20 08:38:23;;;;;;;6.00;3.95;;;16.20;99.90;;;;;;5092272;28;20498;-67
2023/05/20 08:40:55;;;;;;;9.10;4.18;;;16.20;99.90;;;;;;5092569;28;20028;-67
2023/05/20 08:43:22;;;;;;;10.10;3.88;;;16.30;99.90;;;;;;5092943;28;20028;-67
2023/05/20 08:45:48;;;;;;;8.68;4.95;;;16.40;99.90;;;;;;5092318;28;20028;-67
2023/05/20 08:48:16;;;;;;;8.48;4.43;;;16.40;99.90;;;;;;5092411;28;20156;-67
2023/05/20 08:50:44;;;;;;;8.55;4.65;;;16.40;99.90;;;;;;5092193;28;20051;-67
2023/05/20 08:53:09;;;;;;;8.50;3.95;;;16.40;99.90;;;;;;5091908;28;20027;-67
2023/05/20 08:56:07;;;;;;;7.85;3.67;;;16.40;99.90;;;;;;5092172;28;20024;-67
2023/05/20 08:58:32;;;;;;;7.63;4.15;;;16.50;99.90;;;;;;5087271;28;20040;-67
2023/05/20 09:00:59;;;;;;;7.07;3.85;;;16.50;99.90;;;;;;5092199;28;20028;-67
2023/05/20 09:03:24;;;;;;;8.77;3.70;;;16.50;99.90;;;;;;5092597;28;20375;-67
2023/05/20 09:05:51;;;;;;;6.88;3.70;;;16.40;99.90;;;;;;5091960;28;20020;-67
2023/05/20 09:08:18;;;;;;;8.35;3.97;;;16.40;99.90;;;;;;5091713;28;20039;-66
2023/05/20 09:10:44;;;;;;;6.20;3.78;;;16.30;99.90;;;;;;5092105;28;20091;-67
2023/05/20 09:13:10;;;;;;;5.82;3.65;;;16.30;99.90;;;;;;5091791;28;20103;-67
2023/05/20 09:15:36;;;;;;;8.30;3.88;;;16.30;99.90;;;;;;5092249;28;20024;-66
2023/05/20 09:18:04;;;;;;;10.88;3.95;;;16.40;99.90;;;;;;5092001;28;20028;-66
2023/05/20 09:20:31;;;;;;;7.13;3.85;;;16.40;99.90;;;;;;5091592;28;20611;-66
2023/05/20 09:23:01;;;;;;;6.30;3.65;;;16.40;99.90;;;;;;5091328;28;20024;-67
2023/05/20 09:25:28;;;;;;;8.30;3.70;;;16.40;99.90;;;;;;5091774;28;20042;-67
2023/05/20 09:27:54;;;;;;;6.45;4.40;;;16.40;99.90;;;;;;5091691;28;20036;-67
2023/05/20 09:30:20;;;;;;;6.07;3.83;;;16.30;99.90;;;;;;5091480;28;20020;-66
2023/05/20 09:32:56;;;;;;;9.63;3.78;;;16.40;99.90;;;;;;5091578;28;20043;-66
2023/05/20 09:35:23;;;;;;;7.90;3.83;;;16.40;99.90;;;;;;5091505;28;20403;-66
2023/05/20 09:37:56;;;;;;;10.82;4.13;;;16.40;99.90;;;;;;5091217;28;20127;-67
2023/05/20 09:40:27;;;;;;;9.60;4.18;;;16.50;99.90;;;;;;5091483;28;20149;-67
2023/05/20 09:43:06;;;;;;;5.70;3.80;;;16.50;99.90;;;;;;5091492;28;20024;-67
2023/05/20 09:45:32;;;;;;;10.18;4.15;;;16.60;99.90;;;;;;5090809;28;20571;-67
2023/05/20 09:48:00;;;;;;;9.88;4.35;;;16.60;99.90;;;;;;5091527;28;20080;-67
2023/05/20 09:50:27;;;;;;;7.07;3.97;;;16.70;99.90;;;;;;5091317;28;20380;-67
2023/05/20 09:52:54;;;;;;;8.45;3.90;;;16.80;99.90;;;;;;5091365;28;20482;-67
2023/05/20 09:55:22;;;;;;;9.77;4.25;;;16.80;99.90;;;;;;5091489;28;20043;-66
2023/05/20 09:57:47;;;;;;;7.75;4.13;;;16.90;99.90;;;;;;5091613;28;20028;-66
2023/05/20 10:00:18;;;;;;;14.02;4.53;;;16.90;99.90;;;;;;5089973;28;20028;-67
2023/05/20 10:02:49;;;;;;;8.70;4.07;;;17.00;99.90;;;;;;5091070;28;20028;-67
2023/05/20 10:05:28;;;;;;;9.45;3.83;;;17.00;99.90;;;;;;5091009;28;20024;-67
2023/05/20 10:08:30;;;;;;;6.45;4.00;;;17.00;99.90;;;;;;5091665;28;20110;-67
2023/05/20 10:11:25;;;;;;;10.50;4.35;;;17.10;99.90;;;;;;5091308;28;20077;-66
2023/05/20 10:14:06;;;;;;;8.23;4.05;;;17.20;99.90;;;;;;5091480;28;20047;-66
2023/05/20 10:17:07;;;;;;;8.07;3.97;;;17.30;99.90;;;;;;5091225;28;20077;-67
2023/05/20 10:19:33;;;;;;;9.80;4.10;;;17.30;99.90;;;;;;5086513;28;20048;-67
2023/05/20 10:22:10;;;;;;;8.70;4.18;;;17.40;99.90;;;;;;5091430;28;20016;-67
2023/05/20 10:24:39;;;;;;;8.20;4.03;;;17.40;99.90;;;;;;5091407;28;20039;-67
2023/05/20 10:27:14;;;;;;;8.00;3.97;;;17.40;99.90;;;;;;5091181;28;20028;-66
2023/05/20 10:29:42;;;;;;;9.18;4.13;;;17.40;99.90;;;;;;5090795;28;20062;-67
2023/05/20 10:32:07;;;;;;;8.00;3.92;;;17.50;99.90;;;;;;5090861;28;20025;-67
2023/05/20 10:34:45;;;;;;;6.53;4.20;;;17.50;99.90;;;;;;5090344;28;20052;-67
2023/05/20 10:37:22;;;;;;;10.13;3.90;;;17.60;99.90;;;;;;5091418;28;20043;-67
2023/05/20 10:39:48;;;;;;;11.55;4.35;;;17.50;99.90;;;;;;5090906;28;20035;-67
2023/05/20 10:42:14;;;;;;;10.30;4.03;;;17.60;99.90;;;;;;5090900;28;20440;-66
2023/05/20 10:44:46;;;;;;;7.82;3.83;;;17.70;99.90;;;;;;5090915;28;20024;-67
2023/05/20 10:47:13;;;;;;;9.25;4.20;;;17.80;99.90;;;;;;5090025;28;20035;-67
2023/05/20 10:49:45;;;;;;;11.50;4.22;;;17.90;99.90;;;;;;5090377;28;20032;-67
2023/05/20 10:52:12;;;;;;;6.18;3.78;;;18.00;99.90;;;;;;5090948;28;20047;-67
2023/05/20 10:54:55;;;;;;;7.63;4.40;;;18.10;99.90;;;;;;5091190;28;20036;-67
2023/05/20 10:57:21;;;;;;;7.70;4.25;;;18.20;99.90;;;;;;5092908;28;20024;-67
2023/05/20 10:59:48;;;;;;;9.23;4.00;;;18.20;99.90;;;;;;5093261;28;20035;-67
2023/05/20 11:02:15;;;;;;;11.63;3.90;;;18.20;99.90;;;;;;5094435;28;20024;-67
2023/05/20 11:04:46;;;;;;;14.80;4.72;;;18.10;99.90;;;;;;5094129;28;20028;-67
2023/05/20 11:07:12;;;;;;;9.63;4.03;;;18.30;99.90;;;;;;5094258;28;20035;-67
2023/05/20 11:09:38;;;;;;;12.27;5.05;;;18.30;99.90;;;;;;5094126;28;20024;-67
2023/05/20 11:12:04;;;;;;;11.23;4.38;;;18.40;99.90;;;;;;5094493;28;20038;-67
2023/05/20 11:14:30;;;;;;;8.27;4.32;;;18.40;99.90;;;;;;5094349;28;20024;-67
2023/05/20 11:16:57;;;;;;;9.07;4.20;;;18.50;99.90;;;;;;5093930;28;20085;-67
2023/05/20 11:19:25;;;;;;;9.40;4.10;;;18.30;99.90;;;;;;5093729;28;20067;-67
2023/05/20 11:21:51;;;;;;;10.77;4.03;;;18.30;99.90;;;;;;5094091;28;20483;-67
2023/05/20 11:24:25;;;;;;;9.80;3.90;;;18.30;99.90;;;;;;5094463;28;20031;-67
2023/05/20 11:26:52;;;;;;;11.77;4.05;;;18.20;99.90;;;;;;5093872;28;20024;-67
2023/05/20 11:29:18;;;;;;;9.73;4.13;;;18.20;99.90;;;;;;5093860;28;20036;-67
2023/05/20 11:31:45;;;;;;;6.97;3.97;;;18.10;99.90;;;;;;5093202;28;20394;-67
2023/05/20 11:34:11;;;;;;;8.88;4.22;;;18.20;99.90;;;;;;5092746;28;20028;-66
2023/05/20 11:36:41;;;;;;;10.15;5.22;;;18.10;99.90;;;;;;5093531;28;20016;-66
2023/05/20 11:39:10;;;;;;;9.35;4.18;;;18.10;99.90;;;;;;5093641;28;20031;-65
2023/05/20 11:41:35;;;;;;;13.32;4.10;;;18.00;99.90;;;;;;5093490;28;20024;-66
2023/05/20 11:44:01;;;;;;;7.45;3.95;;;18.10;99.90;;;;;;5092989;28;20102;-65
2023/05/20 11:46:27;;;;;;;7.00;3.95;;;18.10;99.90;;;;;;5093455;28;20031;-65
2023/05/20 11:48:53;;;;;;;10.30;3.88;;;18.00;99.90;;;;;;5093517;28;20464;-65
2023/05/20 11:51:27;;;;;;;6.45;3.55;;;17.90;99.90;;;;;;5093588;28;20046;-65
2023/05/20 11:53:58;;;;;;;7.47;3.97;;;17.90;99.90;;;;;;5093476;28;20537;-65
2023/05/20 11:56:24;;;;;;;11.15;4.07;;;18.00;99.90;;;;;;5092921;28;20035;-66
2023/05/20 11:58:50;;;;;;;7.90;3.50;;;18.00;99.90;;;;;;5092762;28;20058;-66
2023/05/20 12:01:16;;;;;;;8.70;3.92;;;17.90;99.90;;;;;;5091789;28;20016;-65
2023/05/20 12:03:41;;;;;;;8.85;3.60;;;18.00;99.90;;;;;;5093136;28;20032;-67
2023/05/20 12:06:10;;;;;;;8.05;3.78;;;18.00;99.90;;;;;;5093021;28;20051;-67
2023/05/20 12:08:36;;;;;;;5.88;3.60;;;18.00;99.90;;;;;;5092146;28;20159;-67
2023/05/20 12:11:02;;;;;;;8.90;3.53;;;18.00;99.90;;;;;;5092631;28;20107;-66
2023/05/20 12:13:27;;;;;;;8.77;3.70;;;18.00;99.90;;;;;;5092224;28;20046;-67
2023/05/20 12:15:53;;;;;;;8.65;3.85;;;18.00;99.90;;;;;;5092139;28;20024;-67
2023/05/20 12:18:19;;;;;;;9.25;4.15;;;18.10;99.90;;;;;;5092432;28;20402;-67
2023/05/20 12:20:44;;;;;;;8.10;3.92;;;18.30;99.90;;;;;;5092163;28;20043;-68
2023/05/20 12:23:10;;;;;;;14.60;5.03;;;18.40;99.90;;;;;;5092281;28;20108;-67
2023/05/20 12:25:36;;;;;;;16.02;4.72;;;18.40;99.90;;;;;;5092039;28;20024;-67
2023/05/20 12:28:02;;;;;;;15.25;5.40;;;18.50;99.90;;;;;;5092032;28;20044;-67
2023/05/20 12:30:27;;;;;;;11.70;5.50;;;18.50;99.90;;;;;;5090620;28;20024;-67
2023/05/20 12:32:53;;;;;;;13.30;5.63;;;18.40;99.90;;;;;;5092180;28;20414;-66
2023/05/20 12:35:35;;;;;;;13.00;5.35;;;18.30;99.90;;;;;;5091895;28;20040;-67
2023/05/20 12:38:00;;;;;;;11.52;5.20;;;18.50;99.90;;;;;;5092257;28;20111;-66
2023/05/20 12:40:26;;;;;;;10.80;5.53;;;18.50;99.90;;;;;;5091951;28;20095;-66
2023/05/20 12:42:52;;;;;;;14.35;5.55;;;18.50;99.90;;;;;;5092026;28;20023;-67